Geneseo, Illinois
Current Conditions -  °F | °C
As of 11:52 PM on Wednesday 28 Jan 2015 (Local Time) from KMLI Reporting Station
Clear Clear  
Wind Chill: 33°   Ceiling: Unl
Heat Index: 39°   Visibility: 10mi
Dew Point: 31°   Wind: 9mph
Humidity: 73%   Direction: 180°S
Pressure: 29.68"   Gusts: NA
Location:  41.45°N, 90.16°W
Report Text: KMLI 290552Z AUTO 18008KT 10SM CLR 04/M01 A2968 RMK AO2 SLP054 T00391006 10044 20017 400441044 56030
Loading
Personal Weather Stations






























Interactive Weather Map New forecast layout! Learn more

10-Day Weather Forecast

Advertisements
Track Severe Weather on mobile